sensor_id;sensor_type;location;lat;lon;timestamp;temperature;humidity
22771;DHT22;11552;50.786;4.332;2022-11-22T00:00:11;7.40;99.90
22771;DHT22;11552;50.786;4.332;2022-11-22T00:07:19;7.40;99.90
22771;DHT22;11552;50.786;4.332;2022-11-22T00:09:45;7.30;99.90
22771;DHT22;11552;50.786;4.332;2022-11-22T00:12:10;7.30;99.90
22771;DHT22;11552;50.786;4.332;2022-11-22T00:14:36;7.40;99.90
22771;DHT22;11552;50.786;4.332;2022-11-22T00:17:01;7.30;99.90
22771;DHT22;11552;50.786;4.332;2022-11-22T00:19:27;7.30;99.90
22771;DHT22;11552;50.786;4.332;2022-11-22T00:22:33;7.30;99.90
22771;DHT22;11552;50.786;4.332;2022-11-22T00:24:58;7.30;99.90
22771;DHT22;11552;50.786;4.332;2022-11-22T00:27:24;7.20;99.90
22771;DHT22;11552;50.786;4.332;2022-11-22T00:29:50;7.20;99.90
22771;DHT22;11552;50.786;4.332;2022-11-22T00:32:15;7.20;99.90
22771;DHT22;11552;50.786;4.332;2022-11-22T00:36:21;7.10;99.90
22771;DHT22;11552;50.786;4.332;2022-11-22T00:40:14;7.00;99.90
22771;DHT22;11552;50.786;4.332;2022-11-22T00:42:39;7.10;99.90
22771;DHT22;11552;50.786;4.332;2022-11-22T00:45:05;7.00;99.90
22771;DHT22;11552;50.786;4.332;2022-11-22T00:47:30;7.10;99.90
22771;DHT22;11552;50.786;4.332;2022-11-22T00:49:56;7.00;99.90
22771;DHT22;11552;50.786;4.332;2022-11-22T00:52:21;7.00;99.90
22771;DHT22;11552;50.786;4.332;2022-11-22T00:54:47;7.00;99.90
22771;DHT22;11552;50.786;4.332;2022-11-22T00:57:12;7.00;99.90
22771;DHT22;11552;50.786;4.332;2022-11-22T00:59:38;6.90;99.90
22771;DHT22;11552;50.786;4.332;2022-11-22T01:02:03;6.90;99.90
22771;DHT22;11552;50.786;4.332;2022-11-22T01:04:29;6.90;99.90
22771;DHT22;11552;50.786;4.332;2022-11-22T01:06:54;6.90;99.90
22771;DHT22;11552;50.786;4.332;2022-11-22T01:09:20;6.90;99.90
22771;DHT22;11552;50.786;4.332;2022-11-22T01:11:47;6.90;99.90
22771;DHT22;11552;50.786;4.332;2022-11-22T01:14:13;6.90;99.90
22771;DHT22;11552;50.786;4.332;2022-11-22T01:16:39;6.80;99.90
22771;DHT22;11552;50.786;4.332;2022-11-22T01:19:04;6.80;99.90
22771;DHT22;11552;50.786;4.332;2022-11-22T01:21:30;6.90;99.90
22771;DHT22;11552;50.786;4.332;2022-11-22T01:23:55;6.80;99.90
22771;DHT22;11552;50.786;4.332;2022-11-22T01:26:21;6.80;99.90
22771;DHT22;11552;50.786;4.332;2022-11-22T01:28:46;6.80;99.90
22771;DHT22;11552;50.786;4.332;2022-11-22T01:31:12;6.80;99.90
22771;DHT22;11552;50.786;4.332;2022-11-22T01:33:37;6.70;99.90
22771;DHT22;11552;50.786;4.332;2022-11-22T01:36:03;6.80;99.90
22771;DHT22;11552;50.786;4.332;2022-11-22T01:38:29;6.70;99.90
22771;DHT22;11552;50.786;4.332;2022-11-22T01:40:54;6.70;99.90
22771;DHT22;11552;50.786;4.332;2022-11-22T01:43:21;6.70;99.90
22771;DHT22;11552;50.786;4.332;2022-11-22T01:45:47;6.70;99.90
22771;DHT22;11552;50.786;4.332;2022-11-22T01:48:22;6.80;99.90
22771;DHT22;11552;50.786;4.332;2022-11-22T01:53:45;6.60;99.90
22771;DHT22;11552;50.786;4.332;2022-11-22T01:56:12;6.50;99.90
22771;DHT22;11552;50.786;4.332;2022-11-22T01:58:38;6.50;99.90
22771;DHT22;11552;50.786;4.332;2022-11-22T02:01:05;6.60;99.90
22771;DHT22;11552;50.786;4.332;2022-11-22T02:06:02;6.50;99.90
22771;DHT22;11552;50.786;4.332;2022-11-22T02:10:54;6.50;99.90
22771;DHT22;11552;50.786;4.332;2022-11-22T02:13:20;6.50;99.90
22771;DHT22;11552;50.786;4.332;2022-11-22T02:15:47;6.60;99.90
22771;DHT22;11552;50.786;4.332;2022-11-22T02:18:13;6.50;99.90
22771;DHT22;11552;50.786;4.332;2022-11-22T02:20:39;6.50;99.90
22771;DHT22;11552;50.786;4.332;2022-11-22T02:28:09;6.40;99.90
22771;DHT22;11552;50.786;4.332;2022-11-22T02:30:36;6.50;99.90
22771;DHT22;11552;50.786;4.332;2022-11-22T02:33:01;6.40;99.90
22771;DHT22;11552;50.786;4.332;2022-11-22T02:35:27;6.30;99.90
22771;DHT22;11552;50.786;4.332;2022-11-22T02:37:54;6.20;99.90
22771;DHT22;11552;50.786;4.332;2022-11-22T02:40:20;6.20;99.90
22771;DHT22;11552;50.786;4.332;2022-11-22T02:42:47;6.30;99.90
22771;DHT22;11552;50.786;4.332;2022-11-22T02:45:13;6.30;99.90
22771;DHT22;11552;50.786;4.332;2022-11-22T02:47:38;6.20;99.90
22771;DHT22;11552;50.786;4.332;2022-11-22T02:50:04;6.20;99.90
22771;DHT22;11552;50.786;4.332;2022-11-22T02:52:30;6.20;99.90
22771;DHT22;11552;50.786;4.332;2022-11-22T02:54:55;6.20;99.90
22771;DHT22;11552;50.786;4.332;2022-11-22T02:57:21;6.20;99.90
22771;DHT22;11552;50.786;4.332;2022-11-22T03:00:36;6.20;99.90
22771;DHT22;11552;50.786;4.332;2022-11-22T03:04:57;6.20;99.90
22771;DHT22;11552;50.786;4.332;2022-11-22T03:07:23;6.30;99.90
22771;DHT22;11552;50.786;4.332;2022-11-22T03:12:26;6.20;99.90
22771;DHT22;11552;50.786;4.332;2022-11-22T03:14:52;6.10;99.90
22771;DHT22;11552;50.786;4.332;2022-11-22T03:17:17;6.10;99.90
22771;DHT22;11552;50.786;4.332;2022-11-22T03:19:43;6.00;99.90
22771;DHT22;11552;50.786;4.332;2022-11-22T03:22:08;6.10;99.90
22771;DHT22;11552;50.786;4.332;2022-11-22T03:24:33;6.00;99.90
22771;DHT22;11552;50.786;4.332;2022-11-22T03:26:59;6.00;99.90
22771;DHT22;11552;50.786;4.332;2022-11-22T03:29:24;6.00;99.90
22771;DHT22;11552;50.786;4.332;2022-11-22T03:31:50;6.10;99.90
22771;DHT22;11552;50.786;4.332;2022-11-22T03:34:15;6.20;99.90
22771;DHT22;11552;50.786;4.332;2022-11-22T03:36:41;6.10;99.90
22771;DHT22;11552;50.786;4.332;2022-11-22T03:39:06;6.00;99.90
22771;DHT22;11552;50.786;4.332;2022-11-22T03:41:32;6.00;99.90
22771;DHT22;11552;50.786;4.332;2022-11-22T03:45:00;6.00;99.90
22771;DHT22;11552;50.786;4.332;2022-11-22T03:47:26;5.90;99.90
22771;DHT22;11552;50.786;4.332;2022-11-22T03:49:51;5.90;99.90
22771;DHT22;11552;50.786;4.332;2022-11-22T03:52:17;5.80;99.90
22771;DHT22;11552;50.786;4.332;2022-11-22T03:54:42;5.80;99.90
22771;DHT22;11552;50.786;4.332;2022-11-22T03:57:08;5.80;99.90
22771;DHT22;11552;50.786;4.332;2022-11-22T03:59:33;5.90;99.90
22771;DHT22;11552;50.786;4.332;2022-11-22T04:01:59;5.80;99.90
22771;DHT22;11552;50.786;4.332;2022-11-22T04:04:24;5.90;99.90
22771;DHT22;11552;50.786;4.332;2022-11-22T04:06:50;6.00;99.90
22771;DHT22;11552;50.786;4.332;2022-11-22T04:09:15;6.00;99.90
22771;DHT22;11552;50.786;4.332;2022-11-22T04:11:41;6.00;99.90
22771;DHT22;11552;50.786;4.332;2022-11-22T04:14:09;6.10;99.90
22771;DHT22;11552;50.786;4.332;2022-11-22T04:16:53;5.90;99.90
22771;DHT22;11552;50.786;4.332;2022-11-22T04:19:19;6.00;99.90
22771;DHT22;11552;50.786;4.332;2022-11-22T04:21:44;6.00;99.90
22771;DHT22;11552;50.786;4.332;2022-11-22T04:24:10;6.10;99.90
22771;DHT22;11552;50.786;4.332;2022-11-22T04:26:54;6.00;99.90
22771;DHT22;11552;50.786;4.332;2022-11-22T04:29:20;6.10;99.90
22771;DHT22;11552;50.786;4.332;2022-11-22T04:31:46;5.90;99.90
22771;DHT22;11552;50.786;4.332;2022-11-22T04:34:31;6.00;99.90
22771;DHT22;11552;50.786;4.332;2022-11-22T04:36:56;6.10;99.90
22771;DHT22;11552;50.786;4.332;2022-11-22T04:39:22;6.10;99.90
22771;DHT22;11552;50.786;4.332;2022-11-22T04:41:47;6.10;99.90
22771;DHT22;11552;50.786;4.332;2022-11-22T04:44:33;6.20;99.90
22771;DHT22;11552;50.786;4.332;2022-11-22T04:47:17;6.20;99.90
22771;DHT22;11552;50.786;4.332;2022-11-22T04:50:30;6.20;99.90
22771;DHT22;11552;50.786;4.332;2022-11-22T04:53:15;6.20;99.90
22771;DHT22;11552;50.786;4.332;2022-11-22T04:55:41;6.10;99.90
22771;DHT22;11552;50.786;4.332;2022-11-22T04:59:06;6.20;99.90
22771;DHT22;11552;50.786;4.332;2022-11-22T05:01:31;6.10;99.90
22771;DHT22;11552;50.786;4.332;2022-11-22T05:03:57;6.20;99.90
22771;DHT22;11552;50.786;4.332;2022-11-22T05:07:41;6.10;99.90
22771;DHT22;11552;50.786;4.332;2022-11-22T05:10:06;6.10;99.90
22771;DHT22;11552;50.786;4.332;2022-11-22T05:12:32;5.90;99.90
22771;DHT22;11552;50.786;4.332;2022-11-22T05:14:57;6.00;99.90
22771;DHT22;11552;50.786;4.332;2022-11-22T05:17:23;6.00;99.90
22771;DHT22;11552;50.786;4.332;2022-11-22T05:19:48;5.90;99.90
22771;DHT22;11552;50.786;4.332;2022-11-22T05:23:14;6.00;99.90
22771;DHT22;11552;50.786;4.332;2022-11-22T05:25:58;6.00;99.90
22771;DHT22;11552;50.786;4.332;2022-11-22T05:28:28;6.10;99.90
22771;DHT22;11552;50.786;4.332;2022-11-22T05:30:54;6.20;99.90
22771;DHT22;11552;50.786;4.332;2022-11-22T05:33:19;6.10;99.90
22771;DHT22;11552;50.786;4.332;2022-11-22T05:35:45;6.10;99.90
22771;DHT22;11552;50.786;4.332;2022-11-22T05:38:10;6.10;99.90
22771;DHT22;11552;50.786;4.332;2022-11-22T05:43:31;6.10;99.90
22771;DHT22;11552;50.786;4.332;2022-11-22T05:49:00;6.30;99.90
22771;DHT22;11552;50.786;4.332;2022-11-22T05:52:35;6.50;99.90
22771;DHT22;11552;50.786;4.332;2022-11-22T05:55:00;6.50;99.90
22771;DHT22;11552;50.786;4.332;2022-11-22T05:57:46;6.60;99.90
22771;DHT22;11552;50.786;4.332;2022-11-22T06:00:11;6.60;99.90
22771;DHT22;11552;50.786;4.332;2022-11-22T06:02:37;6.70;99.90
22771;DHT22;11552;50.786;4.332;2022-11-22T06:07:40;6.70;99.90
22771;DHT22;11552;50.786;4.332;2022-11-22T06:11:38;6.80;99.90
22771;DHT22;11552;50.786;4.332;2022-11-22T06:14:07;6.90;99.90
22771;DHT22;11552;50.786;4.332;2022-11-22T06:16:32;6.90;99.90
22771;DHT22;11552;50.786;4.332;2022-11-22T06:18:58;6.80;99.90
22771;DHT22;11552;50.786;4.332;2022-11-22T06:21:24;6.70;99.90
22771;DHT22;11552;50.786;4.332;2022-11-22T06:23:50;6.60;99.90
22771;DHT22;11552;50.786;4.332;2022-11-22T06:26:16;6.60;99.90
22771;DHT22;11552;50.786;4.332;2022-11-22T06:28:42;6.70;99.90
22771;DHT22;11552;50.786;4.332;2022-11-22T06:31:09;6.70;99.90
22771;DHT22;11552;50.786;4.332;2022-11-22T06:33:35;6.70;99.90
22771;DHT22;11552;50.786;4.332;2022-11-22T06:36:05;6.70;99.90
22771;DHT22;11552;50.786;4.332;2022-11-22T06:38:31;6.80;99.90
22771;DHT22;11552;50.786;4.332;2022-11-22T06:41:03;6.80;99.90
22771;DHT22;11552;50.786;4.332;2022-11-22T06:43:29;6.90;99.90
22771;DHT22;11552;50.786;4.332;2022-11-22T06:46:30;7.00;99.90
22771;DHT22;11552;50.786;4.332;2022-11-22T06:48:55;6.90;99.90
22771;DHT22;11552;50.786;4.332;2022-11-22T06:56:41;6.90;99.90
22771;DHT22;11552;50.786;4.332;2022-11-22T06:59:06;7.10;99.90
22771;DHT22;11552;50.786;4.332;2022-11-22T07:01:32;7.00;99.90
22771;DHT22;11552;50.786;4.332;2022-11-22T07:04:00;7.10;99.90
22771;DHT22;11552;50.786;4.332;2022-11-22T07:06:26;7.10;99.90
22771;DHT22;11552;50.786;4.332;2022-11-22T07:08:52;7.10;99.90
22771;DHT22;11552;50.786;4.332;2022-11-22T07:13:46;7.10;99.90
22771;DHT22;11552;50.786;4.332;2022-11-22T07:16:12;7.20;99.90
22771;DHT22;11552;50.786;4.332;2022-11-22T07:18:38;7.00;99.90
22771;DHT22;11552;50.786;4.332;2022-11-22T07:21:05;7.00;99.90
22771;DHT22;11552;50.786;4.332;2022-11-22T07:23:31;7.00;99.90
22771;DHT22;11552;50.786;4.332;2022-11-22T07:25:57;7.00;99.90
22771;DHT22;11552;50.786;4.332;2022-11-22T07:28:22;7.10;99.90
22771;DHT22;11552;50.786;4.332;2022-11-22T07:30:48;7.00;99.90
22771;DHT22;11552;50.786;4.332;2022-11-22T07:33:14;7.10;99.90
22771;DHT22;11552;50.786;4.332;2022-11-22T07:38:07;7.10;99.90
22771;DHT22;11552;50.786;4.332;2022-11-22T07:40:33;7.20;99.90
22771;DHT22;11552;50.786;4.332;2022-11-22T07:42:59;7.40;99.90
22771;DHT22;11552;50.786;4.332;2022-11-22T07:48:42;7.40;99.90
22771;DHT22;11552;50.786;4.332;2022-11-22T07:53:20;7.50;99.90
22771;DHT22;11552;50.786;4.332;2022-11-22T07:55:46;7.40;99.90
22771;DHT22;11552;50.786;4.332;2022-11-22T07:58:11;7.60;99.90
22771;DHT22;11552;50.786;4.332;2022-11-22T08:00:37;7.60;99.90
22771;DHT22;11552;50.786;4.332;2022-11-22T08:03:02;7.60;99.90
22771;DHT22;11552;50.786;4.332;2022-11-22T08:05:28;7.70;99.90
22771;DHT22;11552;50.786;4.332;2022-11-22T08:07:54;7.80;99.90
22771;DHT22;11552;50.786;4.332;2022-11-22T08:10:55;7.70;99.90
22771;DHT22;11552;50.786;4.332;2022-11-22T08:13:21;7.60;99.90
22771;DHT22;11552;50.786;4.332;2022-11-22T08:15:46;7.80;99.90
22771;DHT22;11552;50.786;4.332;2022-11-22T08:18:14;7.80;99.90
22771;DHT22;11552;50.786;4.332;2022-11-22T08:20:39;7.70;99.90
22771;DHT22;11552;50.786;4.332;2022-11-22T08:23:05;7.70;99.90
22771;DHT22;11552;50.786;4.332;2022-11-22T08:25:30;7.80;99.90
22771;DHT22;11552;50.786;4.332;2022-11-22T08:31:25;7.90;99.90
22771;DHT22;11552;50.786;4.332;2022-11-22T08:33:51;7.90;99.90
22771;DHT22;11552;50.786;4.332;2022-11-22T08:36:17;7.90;99.90
22771;DHT22;11552;50.786;4.332;2022-11-22T08:38:42;7.80;99.90
22771;DHT22;11552;50.786;4.332;2022-11-22T08:41:08;7.90;99.90
22771;DHT22;11552;50.786;4.332;2022-11-22T08:45:18;8.10;99.90
22771;DHT22;11552;50.786;4.332;2022-11-22T08:47:43;8.40;99.90
22771;DHT22;11552;50.786;4.332;2022-11-22T08:50:09;8.40;99.90
22771;DHT22;11552;50.786;4.332;2022-11-22T08:52:34;8.40;99.90
22771;DHT22;11552;50.786;4.332;2022-11-22T08:55:00;8.30;99.90
22771;DHT22;11552;50.786;4.332;2022-11-22T08:57:25;8.40;99.90
22771;DHT22;11552;50.786;4.332;2022-11-22T08:59:51;8.50;99.90
22771;DHT22;11552;50.786;4.332;2022-11-22T09:02:16;8.30;99.90
22771;DHT22;11552;50.786;4.332;2022-11-22T09:05:13;8.30;99.90
22771;DHT22;11552;50.786;4.332;2022-11-22T09:07:39;8.30;99.90
22771;DHT22;11552;50.786;4.332;2022-11-22T09:10:29;8.50;99.90
22771;DHT22;11552;50.786;4.332;2022-11-22T09:12:55;8.40;99.90
22771;DHT22;11552;50.786;4.332;2022-11-22T09:15:20;8.40;99.90
22771;DHT22;11552;50.786;4.332;2022-11-22T09:17:46;8.40;99.90
22771;DHT22;11552;50.786;4.332;2022-11-22T09:20:11;8.50;99.90
22771;DHT22;11552;50.786;4.332;2022-11-22T09:22:37;8.50;99.90
22771;DHT22;11552;50.786;4.332;2022-11-22T09:26:21;8.50;99.90
22771;DHT22;11552;50.786;4.332;2022-11-22T09:28:48;8.40;99.90
22771;DHT22;11552;50.786;4.332;2022-11-22T09:31:15;8.50;99.90
22771;DHT22;11552;50.786;4.332;2022-11-22T09:33:41;8.50;99.90
22771;DHT22;11552;50.786;4.332;2022-11-22T09:38:13;8.60;99.90
22771;DHT22;11552;50.786;4.332;2022-11-22T09:40:44;8.50;99.90
22771;DHT22;11552;50.786;4.332;2022-11-22T09:43:59;8.40;99.90
22771;DHT22;11552;50.786;4.332;2022-11-22T09:45:58;8.60;99.90
22771;DHT22;11552;50.786;4.332;2022-11-22T09:53:23;8.80;99.90
22771;DHT22;11552;50.786;4.332;2022-11-22T09:55:51;8.70;99.90
22771;DHT22;11552;50.786;4.332;2022-11-22T09:58:34;8.70;99.90
22771;DHT22;11552;50.786;4.332;2022-11-22T10:04:18;8.90;99.90
22771;DHT22;11552;50.786;4.332;2022-11-22T10:06:49;8.90;99.90
22771;DHT22;11552;50.786;4.332;2022-11-22T10:13:44;9.00;99.90
22771;DHT22;11552;50.786;4.332;2022-11-22T10:16:15;9.00;99.90
22771;DHT22;11552;50.786;4.332;2022-11-22T10:20:34;9.20;99.90
22771;DHT22;11552;50.786;4.332;2022-11-22T10:23:01;9.20;99.90
22771;DHT22;11552;50.786;4.332;2022-11-22T10:27:57;9.30;99.90
22771;DHT22;11552;50.786;4.332;2022-11-22T10:30:24;9.50;99.90
22771;DHT22;11552;50.786;4.332;2022-11-22T10:32:59;9.60;99.90
22771;DHT22;11552;50.786;4.332;2022-11-22T10:53:15;9.30;99.90
22771;DHT22;11552;50.786;4.332;2022-11-22T10:55:51;9.30;99.90
22771;DHT22;11552;50.786;4.332;2022-11-22T11:00:48;9.40;99.90
22771;DHT22;11552;50.786;4.332;2022-11-22T11:08:37;9.40;99.90
22771;DHT22;11552;50.786;4.332;2022-11-22T11:17:30;9.40;99.90
22771;DHT22;11552;50.786;4.332;2022-11-22T11:21:36;9.00;99.90
22771;DHT22;11552;50.786;4.332;2022-11-22T11:24:02;9.00;99.90
22771;DHT22;11552;50.786;4.332;2022-11-22T11:26:29;9.20;99.90
22771;DHT22;11552;50.786;4.332;2022-11-22T11:31:50;9.70;99.90
22771;DHT22;11552;50.786;4.332;2022-11-22T11:34:28;9.90;99.90
22771;DHT22;11552;50.786;4.332;2022-11-22T11:36:57;9.90;99.90
22771;DHT22;11552;50.786;4.332;2022-11-22T11:39:26;9.90;99.90
22771;DHT22;11552;50.786;4.332;2022-11-22T11:42:37;10.10;99.90
22771;DHT22;11552;50.786;4.332;2022-11-22T11:45:36;10.10;99.90
22771;DHT22;11552;50.786;4.332;2022-11-22T11:47:55;10.00;99.90
22771;DHT22;11552;50.786;4.332;2022-11-22T11:50:24;10.10;99.90
22771;DHT22;11552;50.786;4.332;2022-11-22T11:53:04;10.30;99.90
22771;DHT22;11552;50.786;4.332;2022-11-22T11:55:30;10.20;99.90
22771;DHT22;11552;50.786;4.332;2022-11-22T11:57:57;10.20;99.90
22771;DHT22;11552;50.786;4.332;2022-11-22T12:03:04;10.20;99.90
22771;DHT22;11552;50.786;4.332;2022-11-22T12:05:31;10.20;99.90
22771;DHT22;11552;50.786;4.332;2022-11-22T12:07:57;10.10;99.90
22771;DHT22;11552;50.786;4.332;2022-11-22T12:10:41;10.10;99.90
22771;DHT22;11552;50.786;4.332;2022-11-22T12:20:48;9.80;99.90
22771;DHT22;11552;50.786;4.332;2022-11-22T12:23:19;9.90;99.90
22771;DHT22;11552;50.786;4.332;2022-11-22T12:25:46;10.00;99.90
22771;DHT22;11552;50.786;4.332;2022-11-22T12:28:17;9.90;99.90
22771;DHT22;11552;50.786;4.332;2022-11-22T12:30:44;9.90;99.90
22771;DHT22;11552;50.786;4.332;2022-11-22T12:33:18;9.70;99.90
22771;DHT22;11552;50.786;4.332;2022-11-22T12:35:45;9.60;99.90
22771;DHT22;11552;50.786;4.332;2022-11-22T12:38:17;9.80;99.90
22771;DHT22;11552;50.786;4.332;2022-11-22T12:40:46;9.70;99.90
22771;DHT22;11552;50.786;4.332;2022-11-22T12:44:35;9.60;99.90
22771;DHT22;11552;50.786;4.332;2022-11-22T12:47:09;9.60;99.90
22771;DHT22;11552;50.786;4.332;2022-11-22T12:49:54;9.50;99.90
22771;DHT22;11552;50.786;4.332;2022-11-22T12:55:02;9.40;99.90
22771;DHT22;11552;50.786;4.332;2022-11-22T13:02:24;9.50;99.90
22771;DHT22;11552;50.786;4.332;2022-11-22T13:04:55;9.50;99.90
22771;DHT22;11552;50.786;4.332;2022-11-22T13:07:36;9.50;99.90
22771;DHT22;11552;50.786;4.332;2022-11-22T13:10:25;9.40;99.90
22771;DHT22;11552;50.786;4.332;2022-11-22T13:12:53;9.50;99.90
22771;DHT22;11552;50.786;4.332;2022-11-22T13:20:19;9.40;99.90
22771;DHT22;11552;50.786;4.332;2022-11-22T13:25:55;9.70;99.90
22771;DHT22;11552;50.786;4.332;2022-11-22T13:28:24;9.80;99.90
22771;DHT22;11552;50.786;4.332;2022-11-22T13:31:33;9.90;99.90
22771;DHT22;11552;50.786;4.332;2022-11-22T13:34:28;10.00;99.90
22771;DHT22;11552;50.786;4.332;2022-11-22T13:36:53;10.20;99.90
22771;DHT22;11552;50.786;4.332;2022-11-22T13:39:20;10.20;99.90
22771;DHT22;11552;50.786;4.332;2022-11-22T13:49:44;10.20;99.90
22771;DHT22;11552;50.786;4.332;2022-11-22T13:57:03;10.30;99.90
22771;DHT22;11552;50.786;4.332;2022-11-22T13:59:29;10.20;99.90
22771;DHT22;11552;50.786;4.332;2022-11-22T14:01:59;10.10;99.90
22771;DHT22;11552;50.786;4.332;2022-11-22T14:07:19;10.00;99.90
22771;DHT22;11552;50.786;4.332;2022-11-22T14:17:18;10.20;99.90
22771;DHT22;11552;50.786;4.332;2022-11-22T14:32:15;10.10;99.90
22771;DHT22;11552;50.786;4.332;2022-11-22T14:44:30;9.80;99.90
22771;DHT22;11552;50.786;4.332;2022-11-22T14:47:02;9.90;99.90
22771;DHT22;11552;50.786;4.332;2022-11-22T14:49:34;10.00;99.90
22771;DHT22;11552;50.786;4.332;2022-11-22T14:52:47;10.00;99.90
22771;DHT22;11552;50.786;4.332;2022-11-22T14:55:14;9.90;99.90
22771;DHT22;11552;50.786;4.332;2022-11-22T14:57:41;9.90;99.90
22771;DHT22;11552;50.786;4.332;2022-11-22T15:10:58;9.80;99.90
22771;DHT22;11552;50.786;4.332;2022-11-22T15:15:52;9.60;99.90
22771;DHT22;11552;50.786;4.332;2022-11-22T15:19:04;9.60;99.90
22771;DHT22;11552;50.786;4.332;2022-11-22T15:21:33;9.50;99.90
22771;DHT22;11552;50.786;4.332;2022-11-22T15:23:59;9.50;99.90
22771;DHT22;11552;50.786;4.332;2022-11-22T15:26:25;9.40;99.90
22771;DHT22;11552;50.786;4.332;2022-11-22T15:29:22;9.30;99.90
22771;DHT22;11552;50.786;4.332;2022-11-22T15:38:41;9.20;99.90
22771;DHT22;11552;50.786;4.332;2022-11-22T15:41:15;9.10;99.90
22771;DHT22;11552;50.786;4.332;2022-11-22T15:43:41;9.10;99.90
22771;DHT22;11552;50.786;4.332;2022-11-22T15:46:07;9.10;99.90
22771;DHT22;11552;50.786;4.332;2022-11-22T15:48:33;9.20;99.90
22771;DHT22;11552;50.786;4.332;2022-11-22T15:54:51;9.20;99.90
22771;DHT22;11552;50.786;4.332;2022-11-22T15:57:19;9.30;99.90
22771;DHT22;11552;50.786;4.332;2022-11-22T16:02:55;9.20;99.90
22771;DHT22;11552;50.786;4.332;2022-11-22T16:05:23;9.40;99.90
22771;DHT22;11552;50.786;4.332;2022-11-22T16:07:49;9.50;99.90
22771;DHT22;11552;50.786;4.332;2022-11-22T16:12:50;9.50;99.90
22771;DHT22;11552;50.786;4.332;2022-11-22T16:15:29;9.50;99.90
22771;DHT22;11552;50.786;4.332;2022-11-22T16:19:29;9.60;99.90
22771;DHT22;11552;50.786;4.332;2022-11-22T16:21:55;9.80;99.90
22771;DHT22;11552;50.786;4.332;2022-11-22T16:24:25;9.80;99.90
22771;DHT22;11552;50.786;4.332;2022-11-22T16:32:01;9.80;99.90
22771;DHT22;11552;50.786;4.332;2022-11-22T16:34:26;9.90;99.90
22771;DHT22;11552;50.786;4.332;2022-11-22T16:36:52;9.70;99.90
22771;DHT22;11552;50.786;4.332;2022-11-22T16:39:17;9.80;99.90
22771;DHT22;11552;50.786;4.332;2022-11-22T16:43:35;9.70;99.90
22771;DHT22;11552;50.786;4.332;2022-11-22T16:48:41;9.60;99.90
22771;DHT22;11552;50.786;4.332;2022-11-22T16:52:14;9.60;99.90
22771;DHT22;11552;50.786;4.332;2022-11-22T16:54:40;9.60;99.90
22771;DHT22;11552;50.786;4.332;2022-11-22T16:57:12;9.70;99.90
22771;DHT22;11552;50.786;4.332;2022-11-22T16:59:38;9.70;99.90
22771;DHT22;11552;50.786;4.332;2022-11-22T17:02:13;9.70;99.90
22771;DHT22;11552;50.786;4.332;2022-11-22T17:04:39;9.80;99.90
22771;DHT22;11552;50.786;4.332;2022-11-22T17:07:12;9.80;99.90
22771;DHT22;11552;50.786;4.332;2022-11-22T17:09:38;9.80;99.90
22771;DHT22;11552;50.786;4.332;2022-11-22T17:12:13;9.90;99.90
22771;DHT22;11552;50.786;4.332;2022-11-22T17:14:40;9.90;99.90
22771;DHT22;11552;50.786;4.332;2022-11-22T17:17:09;10.00;99.90
22771;DHT22;11552;50.786;4.332;2022-11-22T17:19:35;10.00;99.90
22771;DHT22;11552;50.786;4.332;2022-11-22T17:22:00;10.10;99.90
22771;DHT22;11552;50.786;4.332;2022-11-22T17:28:33;10.10;99.90
22771;DHT22;11552;50.786;4.332;2022-11-22T17:32:46;10.10;99.90
22771;DHT22;11552;50.786;4.332;2022-11-22T17:35:11;10.00;99.90
22771;DHT22;11552;50.786;4.332;2022-11-22T17:37:37;10.10;99.90
22771;DHT22;11552;50.786;4.332;2022-11-22T17:41:30;10.10;99.90
22771;DHT22;11552;50.786;4.332;2022-11-22T17:46:05;10.20;99.90
22771;DHT22;11552;50.786;4.332;2022-11-22T17:48:31;10.10;99.90
22771;DHT22;11552;50.786;4.332;2022-11-22T17:50:56;10.00;99.90
22771;DHT22;11552;50.786;4.332;2022-11-22T17:54:46;10.20;99.90
22771;DHT22;11552;50.786;4.332;2022-11-22T17:57:11;10.10;99.90
22771;DHT22;11552;50.786;4.332;2022-11-22T17:59:37;10.00;99.90
22771;DHT22;11552;50.786;4.332;2022-11-22T18:02:03;9.90;99.90
22771;DHT22;11552;50.786;4.332;2022-11-22T18:04:28;9.90;99.90
22771;DHT22;11552;50.786;4.332;2022-11-22T18:06:54;9.80;99.90
22771;DHT22;11552;50.786;4.332;2022-11-22T18:09:19;9.80;99.90
22771;DHT22;11552;50.786;4.332;2022-11-22T18:11:45;9.70;99.90
22771;DHT22;11552;50.786;4.332;2022-11-22T18:16:42;9.80;99.90
22771;DHT22;11552;50.786;4.332;2022-11-22T18:19:07;9.70;99.90
22771;DHT22;11552;50.786;4.332;2022-11-22T18:21:33;9.70;99.90
22771;DHT22;11552;50.786;4.332;2022-11-22T18:23:59;9.60;99.90
22771;DHT22;11552;50.786;4.332;2022-11-22T18:26:25;9.60;99.90
22771;DHT22;11552;50.786;4.332;2022-11-22T18:28:50;9.70;99.90
22771;DHT22;11552;50.786;4.332;2022-11-22T18:31:16;9.80;99.90
22771;DHT22;11552;50.786;4.332;2022-11-22T18:33:41;9.90;99.90
22771;DHT22;11552;50.786;4.332;2022-11-22T18:36:08;9.80;99.90
22771;DHT22;11552;50.786;4.332;2022-11-22T18:38:37;9.70;99.90
22771;DHT22;11552;50.786;4.332;2022-11-22T18:45:15;9.70;99.90
22771;DHT22;11552;50.786;4.332;2022-11-22T18:47:41;9.60;99.90
22771;DHT22;11552;50.786;4.332;2022-11-22T18:52:34;9.50;99.90
22771;DHT22;11552;50.786;4.332;2022-11-22T18:55:05;9.60;99.90
22771;DHT22;11552;50.786;4.332;2022-11-22T18:57:31;9.50;99.90
22771;DHT22;11552;50.786;4.332;2022-11-22T18:59:56;9.50;99.90
22771;DHT22;11552;50.786;4.332;2022-11-22T19:02:22;9.50;99.90
22771;DHT22;11552;50.786;4.332;2022-11-22T19:04:50;9.50;99.90
22771;DHT22;11552;50.786;4.332;2022-11-22T19:07:16;9.50;99.90
22771;DHT22;11552;50.786;4.332;2022-11-22T19:09:41;9.50;99.90
22771;DHT22;11552;50.786;4.332;2022-11-22T19:12:07;9.60;99.90
22771;DHT22;11552;50.786;4.332;2022-11-22T19:15:05;9.50;99.90
22771;DHT22;11552;50.786;4.332;2022-11-22T19:18:22;9.40;99.90
22771;DHT22;11552;50.786;4.332;2022-11-22T19:20:48;9.20;99.90
22771;DHT22;11552;50.786;4.332;2022-11-22T19:25:35;9.30;99.90
22771;DHT22;11552;50.786;4.332;2022-11-22T19:28:00;9.30;99.90
22771;DHT22;11552;50.786;4.332;2022-11-22T19:30:26;9.20;99.90
22771;DHT22;11552;50.786;4.332;2022-11-22T19:32:54;9.20;99.90
22771;DHT22;11552;50.786;4.332;2022-11-22T19:36:28;9.20;99.90
22771;DHT22;11552;50.786;4.332;2022-11-22T19:38:54;9.10;99.90
22771;DHT22;11552;50.786;4.332;2022-11-22T19:41:20;9.00;99.90
22771;DHT22;11552;50.786;4.332;2022-11-22T19:43:47;9.10;99.90
22771;DHT22;11552;50.786;4.332;2022-11-22T19:46:37;9.00;99.90
22771;DHT22;11552;50.786;4.332;2022-11-22T19:49:03;9.00;99.90
22771;DHT22;11552;50.786;4.332;2022-11-22T19:51:29;9.00;99.90
22771;DHT22;11552;50.786;4.332;2022-11-22T19:53:56;9.10;99.90
22771;DHT22;11552;50.786;4.332;2022-11-22T19:56:26;9.10;99.90
22771;DHT22;11552;50.786;4.332;2022-11-22T20:00:53;9.00;99.90
22771;DHT22;11552;50.786;4.332;2022-11-22T20:03:19;9.10;99.90
22771;DHT22;11552;50.786;4.332;2022-11-22T20:05:44;9.10;99.90
22771;DHT22;11552;50.786;4.332;2022-11-22T20:08:10;9.20;99.90
22771;DHT22;11552;50.786;4.332;2022-11-22T20:10:35;9.30;99.90
22771;DHT22;11552;50.786;4.332;2022-11-22T20:13:02;9.30;99.90